sensor_id;sensor_type;location;lat;lon;timestamp;temperature;humidity
37806;DHT22;25082;50.870;0.022;2023-03-16T00:00:13;19.30;58.60
37806;DHT22;25082;50.870;0.022;2023-03-16T00:02:40;19.20;58.50
37806;DHT22;25082;50.870;0.022;2023-03-16T00:05:07;19.20;58.50
37806;DHT22;25082;50.870;0.022;2023-03-16T00:07:34;19.20;58.50
37806;DHT22;25082;50.870;0.022;2023-03-16T00:09:59;19.20;58.50
37806;DHT22;25082;50.870;0.022;2023-03-16T00:12:26;19.20;58.50
37806;DHT22;25082;50.870;0.022;2023-03-16T00:14:52;19.20;58.50
37806;DHT22;25082;50.870;0.022;2023-03-16T00:17:19;19.10;58.40
37806;DHT22;25082;50.870;0.022;2023-03-16T00:19:50;19.10;58.40
37806;DHT22;25082;50.870;0.022;2023-03-16T00:22:26;19.10;58.90
37806;DHT22;25082;50.870;0.022;2023-03-16T00:24:52;19.10;58.30
37806;DHT22;25082;50.870;0.022;2023-03-16T00:27:19;19.10;58.40
37806;DHT22;25082;50.870;0.022;2023-03-16T00:29:47;19.10;58.30
37806;DHT22;25082;50.870;0.022;2023-03-16T00:32:19;19.10;58.30
37806;DHT22;25082;50.870;0.022;2023-03-16T00:34:46;19.10;58.20
37806;DHT22;25082;50.870;0.022;2023-03-16T00:37:14;19.10;58.20
37806;DHT22;25082;50.870;0.022;2023-03-16T00:39:42;19.00;58.70
37806;DHT22;25082;50.870;0.022;2023-03-16T00:42:12;19.00;58.10
37806;DHT22;25082;50.870;0.022;2023-03-16T00:44:39;19.00;58.10
37806;DHT22;25082;50.870;0.022;2023-03-16T00:47:09;19.00;58.10
37806;DHT22;25082;50.870;0.022;2023-03-16T00:49:39;19.00;58.10
37806;DHT22;25082;50.870;0.022;2023-03-16T00:52:08;19.00;58.10
37806;DHT22;25082;50.870;0.022;2023-03-16T00:54:34;19.00;58.00
37806;DHT22;25082;50.870;0.022;2023-03-16T00:57:00;18.90;58.00
37806;DHT22;25082;50.870;0.022;2023-03-16T00:59:27;18.90;57.90
37806;DHT22;25082;50.870;0.022;2023-03-16T01:01:54;18.90;57.90
37806;DHT22;25082;50.870;0.022;2023-03-16T01:04:21;18.90;57.70
37806;DHT22;25082;50.870;0.022;2023-03-16T01:06:47;18.90;57.70
37806;DHT22;25082;50.870;0.022;2023-03-16T01:09:13;18.90;57.80
37806;DHT22;25082;50.870;0.022;2023-03-16T01:11:40;18.90;57.80
37806;DHT22;25082;50.870;0.022;2023-03-16T01:14:09;18.90;57.80
37806;DHT22;25082;50.870;0.022;2023-03-16T01:16:36;18.90;57.70
37806;DHT22;25082;50.870;0.022;2023-03-16T01:19:02;18.90;57.80
37806;DHT22;25082;50.870;0.022;2023-03-16T01:21:27;18.80;57.70
37806;DHT22;25082;50.870;0.022;2023-03-16T01:23:54;18.80;57.60
37806;DHT22;25082;50.870;0.022;2023-03-16T01:26:21;18.80;57.70
37806;DHT22;25082;50.870;0.022;2023-03-16T01:28:47;18.80;57.50
37806;DHT22;25082;50.870;0.022;2023-03-16T01:31:14;18.80;57.60
37806;DHT22;25082;50.870;0.022;2023-03-16T01:33:41;18.80;57.50
37806;DHT22;25082;50.870;0.022;2023-03-16T01:36:12;18.80;57.60
37806;DHT22;25082;50.870;0.022;2023-03-16T01:38:38;18.80;57.60
37806;DHT22;25082;50.870;0.022;2023-03-16T01:41:05;18.70;57.50
37806;DHT22;25082;50.870;0.022;2023-03-16T01:43:32;18.70;57.50
37806;DHT22;25082;50.870;0.022;2023-03-16T01:51:47;18.70;57.50
37806;DHT22;25082;50.870;0.022;2023-03-16T01:53:56;18.70;57.40
37806;DHT22;25082;50.870;0.022;2023-03-16T01:56:26;18.70;57.40
37806;DHT22;25082;50.870;0.022;2023-03-16T01:58:56;18.70;57.50
37806;DHT22;25082;50.870;0.022;2023-03-16T02:01:25;18.70;57.50
37806;DHT22;25082;50.870;0.022;2023-03-16T02:03:56;18.60;57.40
37806;DHT22;25082;50.870;0.022;2023-03-16T02:06:24;18.60;57.30
37806;DHT22;25082;50.870;0.022;2023-03-16T02:08:51;18.60;57.40
37806;DHT22;25082;50.870;0.022;2023-03-16T02:11:20;18.60;57.40
37806;DHT22;25082;50.870;0.022;2023-03-16T02:13:47;18.60;57.50
37806;DHT22;25082;50.870;0.022;2023-03-16T02:16:15;18.60;57.30
37806;DHT22;25082;50.870;0.022;2023-03-16T02:18:47;18.60;57.30
37806;DHT22;25082;50.870;0.022;2023-03-16T02:21:39;18.60;57.30
37806;DHT22;25082;50.870;0.022;2023-03-16T02:24:09;18.60;57.40
37806;DHT22;25082;50.870;0.022;2023-03-16T02:26:55;18.60;57.30
37806;DHT22;25082;50.870;0.022;2023-03-16T02:29:25;18.50;57.30
37806;DHT22;25082;50.870;0.022;2023-03-16T02:31:55;18.50;57.30
37806;DHT22;25082;50.870;0.022;2023-03-16T02:34:22;18.50;57.30
37806;DHT22;25082;50.870;0.022;2023-03-16T02:36:49;18.50;57.30
37806;DHT22;25082;50.870;0.022;2023-03-16T02:39:17;18.50;57.30
37806;DHT22;25082;50.870;0.022;2023-03-16T02:41:43;18.50;57.30
37806;DHT22;25082;50.870;0.022;2023-03-16T02:44:11;18.50;57.30
37806;DHT22;25082;50.870;0.022;2023-03-16T02:46:40;18.50;57.30
37806;DHT22;25082;50.870;0.022;2023-03-16T02:49:18;18.50;57.30
37806;DHT22;25082;50.870;0.022;2023-03-16T02:51:46;18.50;57.30
37806;DHT22;25082;50.870;0.022;2023-03-16T02:54:12;18.50;57.30
37806;DHT22;25082;50.870;0.022;2023-03-16T02:56:38;18.50;57.40
37806;DHT22;25082;50.870;0.022;2023-03-16T02:59:04;18.40;57.20
37806;DHT22;25082;50.870;0.022;2023-03-16T03:01:30;18.40;57.20
37806;DHT22;25082;50.870;0.022;2023-03-16T03:03:57;18.40;57.30
37806;DHT22;25082;50.870;0.022;2023-03-16T03:06:22;18.40;57.20
37806;DHT22;25082;50.870;0.022;2023-03-16T03:08:49;18.40;57.20
37806;DHT22;25082;50.870;0.022;2023-03-16T03:11:16;18.40;57.20
37806;DHT22;25082;50.870;0.022;2023-03-16T03:13:44;18.40;57.20
37806;DHT22;25082;50.870;0.022;2023-03-16T03:16:11;18.40;57.20
37806;DHT22;25082;50.870;0.022;2023-03-16T03:18:37;18.50;57.30
37806;DHT22;25082;50.870;0.022;2023-03-16T03:21:04;18.40;57.30
37806;DHT22;25082;50.870;0.022;2023-03-16T03:23:30;18.30;57.20
37806;DHT22;25082;50.870;0.022;2023-03-16T03:25:57;18.30;57.20
37806;DHT22;25082;50.870;0.022;2023-03-16T03:28:23;18.30;57.20
37806;DHT22;25082;50.870;0.022;2023-03-16T03:30:49;18.30;57.20
37806;DHT22;25082;50.870;0.022;2023-03-16T03:33:16;18.30;57.30
37806;DHT22;25082;50.870;0.022;2023-03-16T03:35:42;18.30;57.30
37806;DHT22;25082;50.870;0.022;2023-03-16T03:38:08;18.30;57.30
37806;DHT22;25082;50.870;0.022;2023-03-16T03:40:34;18.30;57.30
37806;DHT22;25082;50.870;0.022;2023-03-16T03:42:59;18.30;57.30
37806;DHT22;25082;50.870;0.022;2023-03-16T03:45:26;18.30;57.30
37806;DHT22;25082;50.870;0.022;2023-03-16T03:47:52;18.30;57.30
37806;DHT22;25082;50.870;0.022;2023-03-16T03:50:20;18.20;57.30
37806;DHT22;25082;50.870;0.022;2023-03-16T03:52:46;18.30;57.30
37806;DHT22;25082;50.870;0.022;2023-03-16T03:55:11;18.20;57.30
37806;DHT22;25082;50.870;0.022;2023-03-16T03:57:37;18.20;57.30
37806;DHT22;25082;50.870;0.022;2023-03-16T04:00:05;18.20;57.30
37806;DHT22;25082;50.870;0.022;2023-03-16T04:02:36;18.20;57.40
37806;DHT22;25082;50.870;0.022;2023-03-16T04:05:03;18.20;57.30
37806;DHT22;25082;50.870;0.022;2023-03-16T04:07:29;18.20;57.40
37806;DHT22;25082;50.870;0.022;2023-03-16T04:09:55;18.20;57.40
37806;DHT22;25082;50.870;0.022;2023-03-16T04:12:20;18.20;57.40
37806;DHT22;25082;50.870;0.022;2023-03-16T04:14:46;18.20;57.40
37806;DHT22;25082;50.870;0.022;2023-03-16T04:17:12;18.20;57.40
37806;DHT22;25082;50.870;0.022;2023-03-16T04:19:38;18.20;57.40
37806;DHT22;25082;50.870;0.022;2023-03-16T04:22:04;18.20;57.40
37806;DHT22;25082;50.870;0.022;2023-03-16T04:24:31;18.10;57.40
37806;DHT22;25082;50.870;0.022;2023-03-16T04:26:59;18.10;57.30
37806;DHT22;25082;50.870;0.022;2023-03-16T04:29:25;18.10;57.40
37806;DHT22;25082;50.870;0.022;2023-03-16T04:31:51;18.10;57.50
37806;DHT22;25082;50.870;0.022;2023-03-16T04:34:18;18.10;57.40
37806;DHT22;25082;50.870;0.022;2023-03-16T04:36:44;18.10;57.40
37806;DHT22;25082;50.870;0.022;2023-03-16T04:39:10;18.10;57.40
37806;DHT22;25082;50.870;0.022;2023-03-16T04:41:36;18.10;57.40
37806;DHT22;25082;50.870;0.022;2023-03-16T04:44:02;18.10;57.40
37806;DHT22;25082;50.870;0.022;2023-03-16T04:46:29;18.10;57.40
37806;DHT22;25082;50.870;0.022;2023-03-16T04:48:54;18.10;57.40
37806;DHT22;25082;50.870;0.022;2023-03-16T04:51:23;18.10;57.40
37806;DHT22;25082;50.870;0.022;2023-03-16T04:53:48;18.10;57.40
37806;DHT22;25082;50.870;0.022;2023-03-16T04:56:14;18.00;57.40
37806;DHT22;25082;50.870;0.022;2023-03-16T04:58:44;18.00;57.40
37806;DHT22;25082;50.870;0.022;2023-03-16T05:01:09;18.00;57.40
37806;DHT22;25082;50.870;0.022;2023-03-16T05:03:35;18.00;57.50
37806;DHT22;25082;50.870;0.022;2023-03-16T05:06:01;18.00;57.40
37806;DHT22;25082;50.870;0.022;2023-03-16T05:08:26;18.00;57.40
37806;DHT22;25082;50.870;0.022;2023-03-16T05:10:56;18.00;57.40
37806;DHT22;25082;50.870;0.022;2023-03-16T05:13:22;18.00;57.50
37806;DHT22;25082;50.870;0.022;2023-03-16T05:15:48;18.00;57.50
37806;DHT22;25082;50.870;0.022;2023-03-16T05:18:13;18.00;57.50
37806;DHT22;25082;50.870;0.022;2023-03-16T05:20:39;18.00;57.50
37806;DHT22;25082;50.870;0.022;2023-03-16T05:23:06;18.00;57.50
37806;DHT22;25082;50.870;0.022;2023-03-16T05:25:33;18.00;57.50
37806;DHT22;25082;50.870;0.022;2023-03-16T05:27:59;17.90;57.50
37806;DHT22;25082;50.870;0.022;2023-03-16T05:30:25;17.90;57.50
37806;DHT22;25082;50.870;0.022;2023-03-16T05:32:51;17.90;57.50
37806;DHT22;25082;50.870;0.022;2023-03-16T05:35:17;17.90;57.50
37806;DHT22;25082;50.870;0.022;2023-03-16T05:37:43;17.90;57.50
37806;DHT22;25082;50.870;0.022;2023-03-16T05:40:10;17.90;57.50
37806;DHT22;25082;50.870;0.022;2023-03-16T05:42:45;17.90;57.50
37806;DHT22;25082;50.870;0.022;2023-03-16T05:45:13;17.90;57.60
37806;DHT22;25082;50.870;0.022;2023-03-16T05:47:39;17.90;57.50
37806;DHT22;25082;50.870;0.022;2023-03-16T05:50:07;17.90;57.50
37806;DHT22;25082;50.870;0.022;2023-03-16T05:52:38;17.90;57.60
37806;DHT22;25082;50.870;0.022;2023-03-16T05:55:06;17.90;57.60
37806;DHT22;25082;50.870;0.022;2023-03-16T05:57:32;17.90;57.60
37806;DHT22;25082;50.870;0.022;2023-03-16T05:59:59;17.90;57.60
37806;DHT22;25082;50.870;0.022;2023-03-16T06:02:26;17.90;57.60
37806;DHT22;25082;50.870;0.022;2023-03-16T06:04:52;17.90;57.60
37806;DHT22;25082;50.870;0.022;2023-03-16T06:07:18;17.90;57.60
37806;DHT22;25082;50.870;0.022;2023-03-16T06:09:44;17.80;57.60
37806;DHT22;25082;50.870;0.022;2023-03-16T06:12:10;17.80;57.60
37806;DHT22;25082;50.870;0.022;2023-03-16T06:14:36;17.80;57.60
37806;DHT22;25082;50.870;0.022;2023-03-16T06:17:01;17.80;57.60
37806;DHT22;25082;50.870;0.022;2023-03-16T06:19:27;17.80;57.60
37806;DHT22;25082;50.870;0.022;2023-03-16T06:21:53;17.80;57.60
37806;DHT22;25082;50.870;0.022;2023-03-16T06:24:18;17.80;57.60
37806;DHT22;25082;50.870;0.022;2023-03-16T06:26:45;17.80;57.60
37806;DHT22;25082;50.870;0.022;2023-03-16T06:29:11;17.80;57.60
37806;DHT22;25082;50.870;0.022;2023-03-16T06:31:37;17.80;57.60
37806;DHT22;25082;50.870;0.022;2023-03-16T06:34:02;17.70;57.60
37806;DHT22;25082;50.870;0.022;2023-03-16T06:36:28;17.70;57.60
37806;DHT22;25082;50.870;0.022;2023-03-16T06:38:54;17.70;57.70
37806;DHT22;25082;50.870;0.022;2023-03-16T06:41:20;17.70;57.70
37806;DHT22;25082;50.870;0.022;2023-03-16T06:43:46;17.70;57.70
37806;DHT22;25082;50.870;0.022;2023-03-16T06:46:11;17.70;57.70
37806;DHT22;25082;50.870;0.022;2023-03-16T06:48:37;17.70;57.70
37806;DHT22;25082;50.870;0.022;2023-03-16T06:51:03;17.70;57.70
37806;DHT22;25082;50.870;0.022;2023-03-16T06:53:29;17.70;57.70
37806;DHT22;25082;50.870;0.022;2023-03-16T06:55:55;17.70;57.80
37806;DHT22;25082;50.870;0.022;2023-03-16T06:58:21;17.70;57.80
37806;DHT22;25082;50.870;0.022;2023-03-16T07:00:46;17.70;57.80
37806;DHT22;25082;50.870;0.022;2023-03-16T07:03:12;17.70;57.80
37806;DHT22;25082;50.870;0.022;2023-03-16T07:05:38;17.70;57.80
37806;DHT22;25082;50.870;0.022;2023-03-16T07:08:04;17.70;57.80
37806;DHT22;25082;50.870;0.022;2023-03-16T07:10:29;17.70;57.80
37806;DHT22;25082;50.870;0.022;2023-03-16T07:12:55;17.70;57.80
37806;DHT22;25082;50.870;0.022;2023-03-16T07:15:21;17.70;57.90
37806;DHT22;25082;50.870;0.022;2023-03-16T07:17:49;17.70;57.90
37806;DHT22;25082;50.870;0.022;2023-03-16T07:20:17;17.70;57.90
37806;DHT22;25082;50.870;0.022;2023-03-16T07:22:42;17.70;57.80
37806;DHT22;25082;50.870;0.022;2023-03-16T07:25:09;17.80;57.90
37806;DHT22;25082;50.870;0.022;2023-03-16T07:27:36;17.80;57.90
37806;DHT22;25082;50.870;0.022;2023-03-16T07:30:02;17.80;57.90
37806;DHT22;25082;50.870;0.022;2023-03-16T07:32:30;17.80;57.90
37806;DHT22;25082;50.870;0.022;2023-03-16T07:34:57;17.90;58.00
37806;DHT22;25082;50.870;0.022;2023-03-16T07:37:24;17.90;58.00
37806;DHT22;25082;50.870;0.022;2023-03-16T07:39:50;17.90;58.00
37806;DHT22;25082;50.870;0.022;2023-03-16T07:42:16;17.90;58.10
37806;DHT22;25082;50.870;0.022;2023-03-16T07:44:42;17.90;58.00
37806;DHT22;25082;50.870;0.022;2023-03-16T07:47:11;18.00;58.10
37806;DHT22;25082;50.870;0.022;2023-03-16T07:49:37;18.00;58.20
37806;DHT22;25082;50.870;0.022;2023-03-16T07:52:03;18.00;58.20
37806;DHT22;25082;50.870;0.022;2023-03-16T07:54:29;18.10;58.20
37806;DHT22;25082;50.870;0.022;2023-03-16T07:56:54;18.10;58.20
37806;DHT22;25082;50.870;0.022;2023-03-16T07:59:20;18.10;58.20
37806;DHT22;25082;50.870;0.022;2023-03-16T08:01:46;18.10;58.80
37806;DHT22;25082;50.870;0.022;2023-03-16T08:04:12;18.20;58.30
37806;DHT22;25082;50.870;0.022;2023-03-16T08:06:38;18.10;58.30
37806;DHT22;25082;50.870;0.022;2023-03-16T08:09:03;18.20;58.40
37806;DHT22;25082;50.870;0.022;2023-03-16T08:11:30;18.20;58.40
37806;DHT22;25082;50.870;0.022;2023-03-16T08:13:56;18.20;58.40
37806;DHT22;25082;50.870;0.022;2023-03-16T08:16:26;18.20;58.50
37806;DHT22;25082;50.870;0.022;2023-03-16T08:18:55;18.20;58.50
37806;DHT22;25082;50.870;0.022;2023-03-16T08:21:21;18.20;58.50
37806;DHT22;25082;50.870;0.022;2023-03-16T08:23:48;18.20;58.50
37806;DHT22;25082;50.870;0.022;2023-03-16T08:26:21;18.30;58.60
37806;DHT22;25082;50.870;0.022;2023-03-16T08:28:49;18.30;58.60
37806;DHT22;25082;50.870;0.022;2023-03-16T08:31:18;18.30;58.60
37806;DHT22;25082;50.870;0.022;2023-03-16T08:33:45;18.30;58.60
37806;DHT22;25082;50.870;0.022;2023-03-16T08:36:13;18.30;58.60
37806;DHT22;25082;50.870;0.022;2023-03-16T08:38:40;18.30;58.60
37806;DHT22;25082;50.870;0.022;2023-03-16T08:41:06;18.30;58.60
37806;DHT22;25082;50.870;0.022;2023-03-16T08:43:32;18.40;58.70
37806;DHT22;25082;50.870;0.022;2023-03-16T08:45:58;18.40;58.70
37806;DHT22;25082;50.870;0.022;2023-03-16T08:48:26;18.40;58.70
37806;DHT22;25082;50.870;0.022;2023-03-16T08:50:53;18.40;58.70
37806;DHT22;25082;50.870;0.022;2023-03-16T08:53:19;18.40;58.70
37806;DHT22;25082;50.870;0.022;2023-03-16T08:55:46;18.50;58.80
37806;DHT22;25082;50.870;0.022;2023-03-16T08:58:12;18.50;58.80
37806;DHT22;25082;50.870;0.022;2023-03-16T09:00:38;18.50;58.80
37806;DHT22;25082;50.870;0.022;2023-03-16T09:03:05;18.40;58.70
37806;DHT22;25082;50.870;0.022;2023-03-16T09:05:31;18.50;58.70
37806;DHT22;25082;50.870;0.022;2023-03-16T09:07:57;18.50;58.70
37806;DHT22;25082;50.870;0.022;2023-03-16T09:10:23;18.50;58.70
37806;DHT22;25082;50.870;0.022;2023-03-16T09:12:50;18.50;58.80
37806;DHT22;25082;50.870;0.022;2023-03-16T09:15:17;18.50;59.00
37806;DHT22;25082;50.870;0.022;2023-03-16T09:17:44;18.50;59.20
37806;DHT22;25082;50.870;0.022;2023-03-16T09:20:12;18.50;59.40
37806;DHT22;25082;50.870;0.022;2023-03-16T09:22:39;18.50;59.60
37806;DHT22;25082;50.870;0.022;2023-03-16T09:25:06;18.50;59.80
37806;DHT22;25082;50.870;0.022;2023-03-16T09:27:33;18.50;60.00
37806;DHT22;25082;50.870;0.022;2023-03-16T09:30:05;18.50;60.00
37806;DHT22;25082;50.870;0.022;2023-03-16T09:32:32;18.60;60.10
37806;DHT22;25082;50.870;0.022;2023-03-16T09:34:58;18.50;60.10
37806;DHT22;25082;50.870;0.022;2023-03-16T09:37:24;18.50;60.00
37806;DHT22;25082;50.870;0.022;2023-03-16T09:39:51;18.60;60.10
37806;DHT22;25082;50.870;0.022;2023-03-16T09:42:26;18.60;60.10
37806;DHT22;25082;50.870;0.022;2023-03-16T09:47:57;18.60;60.20
37806;DHT22;25082;50.870;0.022;2023-03-16T09:50:28;18.60;60.10
37806;DHT22;25082;50.870;0.022;2023-03-16T09:55:41;18.60;60.20
37806;DHT22;25082;50.870;0.022;2023-03-16T09:58:15;18.60;60.20
37806;DHT22;25082;50.870;0.022;2023-03-16T10:06:01;18.70;60.20
37806;DHT22;25082;50.870;0.022;2023-03-16T10:16:39;18.70;60.40
37806;DHT22;25082;50.870;0.022;2023-03-16T10:19:17;18.70;60.40
37806;DHT22;25082;50.870;0.022;2023-03-16T10:21:49;18.70;61.20
37806;DHT22;25082;50.870;0.022;2023-03-16T10:24:43;18.70;60.40
37806;DHT22;25082;50.870;0.022;2023-03-16T10:27:18;18.70;60.50
37806;DHT22;25082;50.870;0.022;2023-03-16T10:29:46;18.70;60.40
37806;DHT22;25082;50.870;0.022;2023-03-16T10:32:16;18.70;60.30
37806;DHT22;25082;50.870;0.022;2023-03-16T10:34:51;18.70;60.20
37806;DHT22;25082;50.870;0.022;2023-03-16T10:37:18;18.70;60.20
37806;DHT22;25082;50.870;0.022;2023-03-16T10:39:47;18.70;60.10
37806;DHT22;25082;50.870;0.022;2023-03-16T10:42:18;18.70;60.10
37806;DHT22;25082;50.870;0.022;2023-03-16T10:44:44;18.80;60.10
37806;DHT22;25082;50.870;0.022;2023-03-16T10:47:37;18.80;60.00
37806;DHT22;25082;50.870;0.022;2023-03-16T10:50:14;18.80;60.00
37806;DHT22;25082;50.870;0.022;2023-03-16T10:52:45;18.80;60.00
37806;DHT22;25082;50.870;0.022;2023-03-16T10:55:23;18.90;60.00
37806;DHT22;25082;50.870;0.022;2023-03-16T10:57:54;18.90;60.00
37806;DHT22;25082;50.870;0.022;2023-03-16T11:00:22;18.90;60.00
37806;DHT22;25082;50.870;0.022;2023-03-16T11:02:51;18.90;59.90
37806;DHT22;25082;50.870;0.022;2023-03-16T11:05:28;18.90;59.90
37806;DHT22;25082;50.870;0.022;2023-03-16T11:08:12;18.90;59.90
37806;DHT22;25082;50.870;0.022;2023-03-16T11:10:43;18.90;59.90
37806;DHT22;25082;50.870;0.022;2023-03-16T11:15:55;19.00;59.90
37806;DHT22;25082;50.870;0.022;2023-03-16T11:18:37;19.00;59.90
37806;DHT22;25082;50.870;0.022;2023-03-16T11:21:15;19.00;59.90
37806;DHT22;25082;50.870;0.022;2023-03-16T11:23:48;19.00;59.90
37806;DHT22;25082;50.870;0.022;2023-03-16T11:26:34;19.00;59.90
37806;DHT22;25082;50.870;0.022;2023-03-16T11:29:06;19.00;59.90
37806;DHT22;25082;50.870;0.022;2023-03-16T11:31:39;19.00;59.80
37806;DHT22;25082;50.870;0.022;2023-03-16T11:34:13;19.00;59.80
37806;DHT22;25082;50.870;0.022;2023-03-16T11:36:44;19.10;59.80
37806;DHT22;25082;50.870;0.022;2023-03-16T11:58:09;19.10;59.60
37806;DHT22;25082;50.870;0.022;2023-03-16T12:00:59;19.10;59.60
37806;DHT22;25082;50.870;0.022;2023-03-16T12:11:58;19.20;59.50
37806;DHT22;25082;50.870;0.022;2023-03-16T12:14:30;19.20;59.60
37806;DHT22;25082;50.870;0.022;2023-03-16T12:17:06;19.20;59.80
37806;DHT22;25082;50.870;0.022;2023-03-16T12:22:21;19.20;59.80
37806;DHT22;25082;50.870;0.022;2023-03-16T12:24:49;19.20;59.70
37806;DHT22;25082;50.870;0.022;2023-03-16T12:27:35;19.20;59.70
37806;DHT22;25082;50.870;0.022;2023-03-16T12:35:42;19.30;60.00
37806;DHT22;25082;50.870;0.022;2023-03-16T12:41:05;19.30;60.00
37806;DHT22;25082;50.870;0.022;2023-03-16T12:48:56;19.30;60.10
37806;DHT22;25082;50.870;0.022;2023-03-16T12:51:37;19.40;60.10
37806;DHT22;25082;50.870;0.022;2023-03-16T12:54:04;19.30;60.00
37806;DHT22;25082;50.870;0.022;2023-03-16T12:56:36;19.40;60.40
37806;DHT22;25082;50.870;0.022;2023-03-16T12:59:23;19.40;61.00
37806;DHT22;25082;50.870;0.022;2023-03-16T13:01:56;19.40;61.10
37806;DHT22;25082;50.870;0.022;2023-03-16T13:04:37;19.40;61.20
37806;DHT22;25082;50.870;0.022;2023-03-16T13:09:35;19.50;61.40
37806;DHT22;25082;50.870;0.022;2023-03-16T13:12:01;19.50;61.30
37806;DHT22;25082;50.870;0.022;2023-03-16T13:14:43;19.50;61.20
37806;DHT22;25082;50.870;0.022;2023-03-16T13:19:45;19.50;61.00
37806;DHT22;25082;50.870;0.022;2023-03-16T13:27:31;19.60;60.90
37806;DHT22;25082;50.870;0.022;2023-03-16T13:30:01;19.50;60.80
37806;DHT22;25082;50.870;0.022;2023-03-16T13:32:32;19.50;60.70
37806;DHT22;25082;50.870;0.022;2023-03-16T13:34:59;19.50;60.60
37806;DHT22;25082;50.870;0.022;2023-03-16T13:37:28;19.50;60.60
37806;DHT22;25082;50.870;0.022;2023-03-16T13:39:59;19.60;60.60
37806;DHT22;25082;50.870;0.022;2023-03-16T13:42:28;19.60;60.60
37806;DHT22;25082;50.870;0.022;2023-03-16T13:44:56;19.50;60.50
37806;DHT22;25082;50.870;0.022;2023-03-16T13:47:25;19.60;60.50
37806;DHT22;25082;50.870;0.022;2023-03-16T13:49:57;19.60;60.50
37806;DHT22;25082;50.870;0.022;2023-03-16T13:52:27;19.50;60.40
37806;DHT22;25082;50.870;0.022;2023-03-16T13:54:55;19.50;60.40
37806;DHT22;25082;50.870;0.022;2023-03-16T13:57:24;19.50;60.40
37806;DHT22;25082;50.870;0.022;2023-03-16T13:59:51;19.50;60.40
37806;DHT22;25082;50.870;0.022;2023-03-16T14:02:23;19.50;60.30
37806;DHT22;25082;50.870;0.022;2023-03-16T14:04:49;19.50;60.30
37806;DHT22;25082;50.870;0.022;2023-03-16T14:07:18;19.50;60.20
37806;DHT22;25082;50.870;0.022;2023-03-16T14:09:44;19.60;60.30
37806;DHT22;25082;50.870;0.022;2023-03-16T14:12:15;19.50;60.20
37806;DHT22;25082;50.870;0.022;2023-03-16T14:14:44;19.50;60.30
37806;DHT22;25082;50.870;0.022;2023-03-16T14:17:20;19.50;60.20
37806;DHT22;25082;50.870;0.022;2023-03-16T14:19:48;19.50;60.30
37806;DHT22;25082;50.870;0.022;2023-03-16T14:22:17;19.60;60.30
37806;DHT22;25082;50.870;0.022;2023-03-16T14:24:45;19.60;60.30
37806;DHT22;25082;50.870;0.022;2023-03-16T14:27:21;19.60;60.40
37806;DHT22;25082;50.870;0.022;2023-03-16T14:30:01;19.50;60.30
37806;DHT22;25082;50.870;0.022;2023-03-16T14:32:29;19.50;60.10
37806;DHT22;25082;50.870;0.022;2023-03-16T14:35:11;19.50;60.10
37806;DHT22;25082;50.870;0.022;2023-03-16T14:37:38;19.50;60.00
37806;DHT22;25082;50.870;0.022;2023-03-16T14:40:17;19.50;60.10
37806;DHT22;25082;50.870;0.022;2023-03-16T14:42:45;19.60;60.10
37806;DHT22;25082;50.870;0.022;2023-03-16T14:45:12;19.60;60.00
37806;DHT22;25082;50.870;0.022;2023-03-16T14:47:44;19.60;60.00
37806;DHT22;25082;50.870;0.022;2023-03-16T14:50:22;19.60;60.00
37806;DHT22;25082;50.870;0.022;2023-03-16T14:52:50;19.50;58.60
37806;DHT22;25082;50.870;0.022;2023-03-16T14:55:19;19.50;57.60
37806;DHT22;25082;50.870;0.022;2023-03-16T14:57:45;19.40;57.50
37806;DHT22;25082;50.870;0.022;2023-03-16T15:00:14;19.30;57.20
37806;DHT22;25082;50.870;0.022;2023-03-16T15:02:43;19.30;57.70
37806;DHT22;25082;50.870;0.022;2023-03-16T15:05:16;19.30;58.00
37806;DHT22;25082;50.870;0.022;2023-03-16T15:07:44;19.40;58.50
37806;DHT22;25082;50.870;0.022;2023-03-16T15:12:40;19.40;58.80
37806;DHT22;25082;50.870;0.022;2023-03-16T15:15:19;19.50;59.10
37806;DHT22;25082;50.870;0.022;2023-03-16T15:17:47;19.50;59.10
37806;DHT22;25082;50.870;0.022;2023-03-16T15:20:27;19.50;59.10
37806;DHT22;25082;50.870;0.022;2023-03-16T15:22:56;19.50;59.30
37806;DHT22;25082;50.870;0.022;2023-03-16T15:28:19;19.50;59.30
37806;DHT22;25082;50.870;0.022;2023-03-16T15:30:53;19.50;59.30
37806;DHT22;25082;50.870;0.022;2023-03-16T15:33:19;19.60;59.40
37806;DHT22;25082;50.870;0.022;2023-03-16T15:35:47;19.50;59.40
37806;DHT22;25082;50.870;0.022;2023-03-16T15:38:22;19.50;59.00
37806;DHT22;25082;50.870;0.022;2023-03-16T15:40:49;19.40;57.80
37806;DHT22;25082;50.870;0.022;2023-03-16T15:43:19;19.40;58.20
37806;DHT22;25082;50.870;0.022;2023-03-16T15:45:46;19.40;58.10
37806;DHT22;25082;50.870;0.022;2023-03-16T15:48:13;19.40;58.30
37806;DHT22;25082;50.870;0.022;2023-03-16T15:50:49;19.40;59.00
37806;DHT22;25082;50.870;0.022;2023-03-16T15:53:32;19.40;58.50
37806;DHT22;25082;50.870;0.022;2023-03-16T15:56:22;19.50;58.60
37806;DHT22;25082;50.870;0.022;2023-03-16T15:58:51;19.50;58.80
37806;DHT22;25082;50.870;0.022;2023-03-16T16:01:24;19.50;58.90
37806;DHT22;25082;50.870;0.022;2023-03-16T16:03:52;19.50;59.00
37806;DHT22;25082;50.870;0.022;2023-03-16T16:06:18;19.60;59.00
37806;DHT22;25082;50.870;0.022;2023-03-16T16:08:44;19.60;59.10
37806;DHT22;25082;50.870;0.022;2023-03-16T16:11:37;19.60;59.10
37806;DHT22;25082;50.870;0.022;2023-03-16T16:14:03;19.70;59.10
37806;DHT22;25082;50.870;0.022;2023-03-16T16:16:30;19.60;59.20
37806;DHT22;25082;50.870;0.022;2023-03-16T16:18:58;19.70;59.30
37806;DHT22;25082;50.870;0.022;2023-03-16T16:21:26;19.60;59.00
37806;DHT22;25082;50.870;0.022;2023-03-16T16:23:53;19.60;58.90
37806;DHT22;25082;50.870;0.022;2023-03-16T16:26:29;19.60;59.50
37806;DHT22;25082;50.870;0.022;2023-03-16T16:28:56;19.60;58.90
37806;DHT22;25082;50.870;0.022;2023-03-16T16:31:27;19.60;58.90
37806;DHT22;25082;50.870;0.022;2023-03-16T16:33:53;19.60;59.00
37806;DHT22;25082;50.870;0.022;2023-03-16T16:36:19;19.60;59.00
37806;DHT22;25082;50.870;0.022;2023-03-16T16:38:48;19.60;59.10
37806;DHT22;25082;50.870;0.022;2023-03-16T16:41:25;19.70;59.10
37806;DHT22;25082;50.870;0.022;2023-03-16T16:43:52;19.60;59.10
37806;DHT22;25082;50.870;0.022;2023-03-16T16:46:26;19.60;59.20
37806;DHT22;25082;50.870;0.022;2023-03-16T16:49:14;19.70;59.40
37806;DHT22;25082;50.870;0.022;2023-03-16T16:51:41;19.60;59.30
37806;DHT22;25082;50.870;0.022;2023-03-16T16:54:18;19.60;59.40
37806;DHT22;25082;50.870;0.022;2023-03-16T16:56:45;19.60;59.30
37806;DHT22;25082;50.870;0.022;2023-03-16T17:01:41;19.60;59.90
37806;DHT22;25082;50.870;0.022;2023-03-16T17:04:18;19.60;59.30
37806;DHT22;25082;50.870;0.022;2023-03-16T17:06:47;19.60;59.40
37806;DHT22;25082;50.870;0.022;2023-03-16T17:09:15;19.60;59.40